Time;durP1;ratioP1;P1;durP2;ratioP2;P2;SDS_P1;SDS_P2;PMS_P1;PMS_P2;Temp;Humidity;BMP_temperature;BMP_pressure;BME280_temperature;BME280_humidity;BME280_pressure;Samples;Min_cycle;Max_cycle;Signal;HPM_P1;HPM_P2
2021/04/28 00:00:38;;;;;;;10.88;7.63;;;;;;;9.87;53.53;95193.47;5094124;28;20043;-65
2021/04/28 00:03:06;;;;;;;15.18;7.88;;;;;;;9.78;53.29;95182.69;5092816;28;20048;-65
2021/04/28 00:05:33;;;;;;;11.70;7.65;;;;;;;9.78;53.30;95184.63;5094126;28;20517;-65
2021/04/28 00:07:59;;;;;;;13.43;8.43;;;;;;;9.77;53.14;95185.75;5093039;28;20180;-65
2021/04/28 00:10:29;;;;;;;13.52;8.57;;;;;;;9.75;53.85;95185.28;5093678;28;20044;-65
2021/04/28 00:12:55;;;;;;;13.65;8.25;;;;;;;9.76;53.61;95187.69;5093161;28;20048;-64
2021/04/28 00:15:24;;;;;;;12.52;8.25;;;;;;;9.77;54.45;95188.47;5075844;28;20051;-65
2021/04/28 00:17:51;;;;;;;11.60;8.07;;;;;;;9.77;54.02;95188.47;5072970;28;20090;-65
2021/04/28 00:20:19;;;;;;;14.57;8.23;;;;;;;9.76;53.89;95192.31;5072926;28;20040;-65
2021/04/28 00:22:45;;;;;;;12.18;7.85;;;;;;;9.75;54.02;95180.66;5093253;28;20051;-65
2021/04/28 00:25:14;;;;;;;11.38;7.72;;;;;;;9.75;53.51;95180.66;5092249;28;20048;-65
2021/04/28 00:27:40;;;;;;;10.60;7.93;;;;;;;9.74;53.41;95184.50;5093503;28;20052;-65
2021/04/28 00:30:09;;;;;;;11.75;7.82;;;;;;;9.70;53.64;95182.81;5092125;28;20051;-66
2021/04/28 00:32:35;;;;;;;15.18;8.30;;;;;;;9.66;53.63;95183.50;5093859;28;20047;-65
2021/04/28 00:35:02;;;;;;;12.75;8.07;;;;;;;9.64;53.71;95180.31;5091878;28;20044;-66
2021/04/28 00:37:29;;;;;;;13.38;8.10;;;;;;;9.60;54.20;95184.84;5093436;28;20044;-65
2021/04/28 00:39:55;;;;;;;12.70;8.00;;;;;;;9.56;54.57;95178.53;5092759;28;20411;-65
2021/04/28 00:42:21;;;;;;;11.93;8.02;;;;;;;9.52;54.36;95180.31;5092585;28;20846;-65
2021/04/28 00:44:48;;;;;;;10.45;8.18;;;;;;;9.47;53.94;95175.13;5080277;28;20044;-65
2021/04/28 00:47:14;;;;;;;13.65;8.57;;;;;;;9.44;54.11;95175.78;5071721;28;20045;-65
2021/04/28 00:49:40;;;;;;;12.90;8.55;;;;;;;9.38;54.31;95177.13;5072897;28;20045;-64
2021/04/28 00:52:07;;;;;;;11.82;7.88;;;;;;;9.35;54.54;95175.13;5085713;28;20075;-65
2021/04/28 00:54:34;;;;;;;12.15;8.30;;;;;;;9.31;54.77;95171.47;5093437;28;20048;-65
2021/04/28 00:57:03;;;;;;;14.07;8.98;;;;;;;9.27;54.95;95170.56;5092114;28;20052;-65
2021/04/28 00:59:29;;;;;;;12.65;8.20;;;;;;;9.20;54.81;95165.69;5092819;28;20637;-64
2021/04/28 01:01:55;;;;;;;15.00;8.23;;;;;;;9.15;55.25;95164.00;5092061;28;20048;-65
2021/04/28 01:04:21;;;;;;;12.82;8.68;;;;;;;9.09;55.30;95164.56;5092491;28;20063;-65
2021/04/28 01:06:48;;;;;;;12.55;9.00;;;;;;;8.99;55.38;95179.34;5092539;28;20112;-65
2021/04/28 01:09:15;;;;;;;15.45;9.18;;;;;;;8.93;55.81;95174.47;5091937;28;20052;-65
2021/04/28 01:11:43;;;;;;;13.32;8.98;;;;;;;8.88;56.02;95170.06;5092711;28;20405;-65
2021/04/28 01:14:09;;;;;;;15.77;9.20;;;;;;;8.81;56.59;95173.31;5084011;28;20047;-65
2021/04/28 01:16:36;;;;;;;12.52;8.95;;;;;;;8.75;56.87;95171.16;5072685;28;20048;-65
2021/04/28 01:19:04;;;;;;;14.38;9.18;;;;;;;8.68;57.32;95168.19;5072007;28;20052;-65
2021/04/28 01:21:30;;;;;;;16.50;10.45;;;;;;;8.61;57.57;95166.00;5082016;28;20039;-65
2021/04/28 01:23:57;;;;;;;14.32;9.93;;;;;;;8.55;57.64;95168.13;5091506;28;20399;-65
2021/04/28 01:26:25;;;;;;;14.35;9.80;;;;;;;8.46;57.87;95181.00;5071886;28;20052;-65
2021/04/28 01:28:52;;;;;;;15.95;9.98;;;;;;;8.39;58.23;95175.31;5071427;28;20098;-65
2021/04/28 01:31:19;;;;;;;15.13;9.65;;;;;;;8.33;58.67;95173.88;5071981;28;20065;-65
2021/04/28 01:33:47;;;;;;;16.83;9.68;;;;;;;8.29;58.74;95168.31;5072355;28;20082;-65
2021/04/28 01:36:18;;;;;;;14.10;9.43;;;;;;;8.25;59.33;95170.13;5070766;28;20048;-65
2021/04/28 01:38:47;;;;;;;15.50;10.35;;;;;;;8.22;59.52;95170.00;5072055;28;20045;-65
2021/04/28 01:41:14;;;;;;;14.55;10.13;;;;;;;8.21;59.42;95168.41;5070396;28;20396;-65
2021/04/28 01:43:41;;;;;;;15.18;9.82;;;;;;;8.17;59.40;95162.06;5072307;28;20044;-65
2021/04/28 01:46:08;;;;;;;15.13;10.18;;;;;;;8.14;59.14;95162.72;5070363;28;20045;-65
2021/04/28 01:48:36;;;;;;;14.50;10.10;;;;;;;8.08;59.26;95176.47;5071788;28;20055;-65
2021/04/28 01:51:02;;;;;;;12.40;9.32;;;;;;;8.04;59.26;95170.16;5075874;28;20085;-66
2021/04/28 01:53:28;;;;;;;15.20;9.82;;;;;;;8.01;59.34;95168.06;5091579;28;20048;-65
2021/04/28 01:55:56;;;;;;;14.32;9.55;;;;;;;8.00;59.76;95168.41;5080623;28;20048;-65
2021/04/28 01:58:25;;;;;;;14.65;10.05;;;;;;;7.94;59.84;95170.53;5070592;28;20067;-65
2021/04/28 02:00:51;;;;;;;15.65;9.93;;;;;;;7.90;59.63;95175.00;5071420;28;20055;-64
2021/04/28 02:03:21;;;;;;;16.75;10.55;;;;;;;7.88;59.66;95169.13;5069940;28;20072;-65
2021/04/28 02:05:47;;;;;;;15.88;10.02;;;;;;;7.86;59.73;95171.38;5071832;28;20067;-64
2021/04/28 02:08:13;;;;;;;15.88;10.52;;;;;;;7.81;59.58;95169.66;5070672;28;20040;-65
2021/04/28 02:10:39;;;;;;;15.50;10.50;;;;;;;7.78;59.95;95170.31;5070943;28;20041;-65
2021/04/28 02:13:05;;;;;;;20.92;10.70;;;;;;;7.77;60.15;95165.22;5070018;28;20556;-65
2021/04/28 02:15:33;;;;;;;18.05;11.32;;;;;;;7.74;60.07;95166.66;5071049;28;20041;-65
2021/04/28 02:18:02;;;;;;;16.20;10.32;;;;;;;7.72;59.75;95168.91;5070827;28;20045;-64
2021/04/28 02:20:29;;;;;;;15.60;10.32;;;;;;;7.70;60.20;95170.38;5071022;28;20141;-64
2021/04/28 02:22:56;;;;;;;17.52;10.30;;;;;;;7.67;60.40;95165.59;5091465;28;20067;-64
2021/04/28 02:25:23;;;;;;;15.18;10.18;;;;;;;7.65;60.33;95162.41;5083110;28;20395;-65
2021/04/28 02:27:53;;;;;;;15.13;10.40;;;;;;;7.65;60.60;95162.41;5071278;28;20075;-64
2021/04/28 02:30:21;;;;;;;12.80;9.65;;;;;;;7.62;60.54;95157.66;5069857;28;20048;-65
2021/04/28 02:32:49;;;;;;;14.60;10.10;;;;;;;7.61;60.89;95150.66;5070858;28;20056;-64
2021/04/28 02:35:16;;;;;;;20.70;10.65;;;;;;;7.59;61.09;95154.47;5069588;28;20044;-65
2021/04/28 02:37:44;;;;;;;18.23;10.32;;;;;;;7.60;60.63;95155.28;5070609;28;20067;-64
2021/04/28 02:40:12;;;;;;;15.05;9.73;;;;;;;7.57;60.46;95156.75;5069991;28;20055;-65
2021/04/28 02:42:39;;;;;;;14.80;10.10;;;;;;;7.55;60.21;95152.75;5070478;28;20049;-65
2021/04/28 02:45:07;;;;;;;14.52;9.88;;;;;;;7.50;60.28;95150.22;5070207;28;20066;-65
2021/04/28 02:47:34;;;;;;;12.68;9.63;;;;;;;7.45;60.69;95148.50;5070941;28;20056;-65
2021/04/28 02:50:04;;;;;;;17.88;10.30;;;;;;;7.40;60.47;95151.41;5071278;28;20529;-65
2021/04/28 02:52:31;;;;;;;14.07;10.23;;;;;;;7.37;60.77;95157.47;5087187;28;20047;-65
2021/04/28 02:54:57;;;;;;;24.23;10.48;;;;;;;7.36;60.86;95150.47;5088067;28;20072;-65
2021/04/28 02:57:24;;;;;;;16.45;10.57;;;;;;;7.33;61.10;95149.22;5069323;28;20055;-65
2021/04/28 02:59:51;;;;;;;19.13;10.48;;;;;;;7.32;60.82;95138.72;5070768;28;20047;-64
2021/04/28 03:02:18;;;;;;;20.50;10.40;;;;;;;7.28;61.03;95148.59;5069445;28;20052;-65
2021/04/28 03:04:45;;;;;;;21.17;11.38;;;;;;;7.25;61.05;95141.13;5070179;28;20044;-65
2021/04/28 03:07:13;;;;;;;17.90;10.45;;;;;;;7.20;61.42;95141.31;5069807;28;20048;-65
2021/04/28 03:09:40;;;;;;;14.27;10.07;;;;;;;7.16;61.15;95143.09;5069536;28;20629;-65
2021/04/28 03:12:08;;;;;;;16.60;10.90;;;;;;;7.12;61.17;95136.72;5070353;28;20098;-65
2021/04/28 03:14:34;;;;;;;18.98;10.60;;;;;;;7.07;61.17;95143.13;5069461;28;20049;-65
2021/04/28 03:17:01;;;;;;;21.85;11.07;;;;;;;7.04;61.25;95143.75;5070899;28;20045;-64
2021/04/28 03:19:27;;;;;;;17.60;11.15;;;;;;;7.02;61.42;95146.00;5068993;28;20041;-65
2021/04/28 03:21:53;;;;;;;19.05;10.98;;;;;;;6.99;61.88;95152.06;5083036;28;20055;-64
2021/04/28 03:24:22;;;;;;;20.27;11.13;;;;;;;6.96;61.57;95148.09;5093268;28;20040;-65
2021/04/28 03:26:51;;;;;;;22.50;11.70;;;;;;;6.94;61.67;95147.63;5076035;28;20056;-65
2021/04/28 03:29:17;;;;;;;24.55;10.50;;;;;;;6.92;61.74;95152.56;5073522;28;20048;-65
2021/04/28 03:31:43;;;;;;;16.17;10.93;;;;;;;6.92;61.89;95157.97;5073842;28;20527;-65
2021/04/28 03:34:09;;;;;;;20.70;12.43;;;;;;;6.88;62.77;95146.19;5073774;28;20514;-65
2021/04/28 03:36:35;;;;;;;23.40;11.32;;;;;;;6.88;62.57;95154.31;5073406;28;20105;-64
2021/04/28 03:39:01;;;;;;;25.50;12.43;;;;;;;6.89;62.65;95157.81;5074610;28;20045;-65
2021/04/28 03:41:28;;;;;;;24.58;12.77;;;;;;;6.89;62.53;95147.81;5073273;28;20461;-65
2021/04/28 03:43:54;;;;;;;24.90;12.45;;;;;;;6.89;62.79;95153.22;5074224;28;20414;-64
2021/04/28 03:46:21;;;;;;;22.25;11.10;;;;;;;6.88;62.91;95154.31;5072888;28;20499;-65
2021/04/28 03:48:47;;;;;;;23.05;11.73;;;;;;;6.89;63.03;95158.63;5073874;28;20054;-65
2021/04/28 03:51:13;;;;;;;20.80;10.82;;;;;;;6.90;62.76;95151.31;5079951;28;20044;-65
2021/04/28 03:53:39;;;;;;;19.45;11.27;;;;;;;6.87;63.01;95150.03;5093996;28;20430;-65
2021/04/28 03:56:05;;;;;;;23.92;11.68;;;;;;;6.83;63.83;95154.50;5080830;28;20048;-65
2021/04/28 03:58:32;;;;;;;23.52;12.27;;;;;;;6.79;64.07;95157.06;5074144;28;20049;-64
2021/04/28 04:00:58;;;;;;;25.45;11.68;;;;;;;6.80;63.63;95149.75;5074084;28;20081;-64
2021/04/28 04:03:25;;;;;;;23.75;11.05;;;;;;;6.79;63.34;95142.75;5072092;28;20106;-64
2021/04/28 04:05:51;;;;;;;37.95;12.60;;;;;;;6.74;63.69;95145.63;5074260;28;20040;-64
2021/04/28 04:08:17;;;;;;;33.28;11.77;;;;;;;6.74;63.94;95153.75;5072567;28;20045;-65
2021/04/28 04:10:44;;;;;;;31.40;12.68;;;;;;;6.74;64.13;95143.72;5073766;28;20075;-65
2021/04/28 04:13:10;;;;;;;23.80;11.50;;;;;;;6.73;64.00;95150.25;5072300;28;20040;-65
2021/04/28 04:15:37;;;;;;;26.50;11.13;;;;;;;6.72;63.46;95151.34;5073584;28;20064;-65
2021/04/28 04:18:03;;;;;;;19.13;11.18;;;;;;;6.71;62.80;95162.50;5072658;28;20048;-65
2021/04/28 04:20:29;;;;;;;20.27;11.57;;;;;;;6.66;62.42;95160.75;5073662;28;20137;-65
2021/04/28 04:22:55;;;;;;;37.28;18.67;;;;;;;6.62;63.26;95167.91;5093699;28;20502;-65
2021/04/28 04:25:21;;;;;;;21.90;12.00;;;;;;;6.60;64.06;95164.75;5085679;28;20056;-65
2021/04/28 04:27:47;;;;;;;20.88;11.20;;;;;;;6.61;63.91;95165.53;5073508;28;20063;-65
2021/04/28 04:30:13;;;;;;;22.92;12.07;;;;;;;6.60;63.61;95170.16;5071852;28;20056;-65
2021/04/28 04:32:40;;;;;;;18.88;11.68;;;;;;;6.57;63.24;95167.28;5073683;28;20052;-64
2021/04/28 04:35:08;;;;;;;23.45;11.70;;;;;;;6.56;63.26;95163.00;5071417;28;20041;-64
2021/04/28 04:37:34;;;;;;;19.08;11.80;;;;;;;6.56;63.67;95168.41;5072935;28;20057;-64
2021/04/28 04:40:00;;;;;;;18.10;11.73;;;;;;;6.56;64.27;95169.19;5072796;28;20063;-65
2021/04/28 04:42:26;;;;;;;20.08;11.82;;;;;;;6.54;63.41;95171.44;5072029;28;20494;-65
2021/04/28 04:44:52;;;;;;;22.80;12.07;;;;;;;6.50;63.12;95168.56;5072935;28;20044;-64
2021/04/28 04:47:18;;;;;;;21.40;12.18;;;;;;;6.48;63.46;95170.81;5072014;28;20051;-64
2021/04/28 04:49:45;;;;;;;29.50;12.93;;;;;;;6.45;63.81;95165.25;5073120;28;20048;-64
2021/04/28 04:52:12;;;;;;;20.77;13.65;;;;;;;6.42;64.32;95168.56;5086336;28;20135;-65
2021/04/28 04:54:38;;;;;;;27.27;12.82;;;;;;;6.41;64.08;95165.09;5092761;28;20052;-64
2021/04/28 04:57:04;;;;;;;27.75;15.50;;;;;;;6.40;63.98;95168.13;5071359;28;20418;-65
2021/04/28 04:59:30;;;;;;;27.45;15.13;;;;;;;6.39;64.21;95172.72;5072740;28;20052;-65
2021/04/28 05:01:56;;;;;;;23.65;14.77;;;;;;;6.39;64.59;95171.94;5072148;28;20044;-64
2021/04/28 05:04:22;;;;;;;22.55;14.38;;;;;;;6.43;64.62;95178.31;5071845;28;20603;-64
2021/04/28 05:06:49;;;;;;;24.08;14.52;;;;;;;6.47;65.13;95174.66;5072158;28;20056;-64
2021/04/28 05:09:15;;;;;;;23.73;13.35;;;;;;;6.54;64.90;95172.25;5071503;28;20059;-65
2021/04/28 05:11:41;;;;;;;26.65;14.68;;;;;;;6.64;65.10;95173.03;5072611;28;20048;-65
2021/04/28 05:14:07;;;;;;;19.17;12.80;;;;;;;6.68;64.89;95180.19;5071360;28;20055;-65
2021/04/28 05:16:33;;;;;;;21.83;12.60;;;;;;;6.77;65.27;95178.22;5072606;28;20052;-65
2021/04/28 05:18:59;;;;;;;22.73;12.40;;;;;;;6.85;64.44;95170.44;5071426;28;20045;-65
2021/04/28 05:21:25;;;;;;;22.42;12.50;;;;;;;6.96;64.63;95169.75;5080876;28;20044;-65
2021/04/28 05:23:52;;;;;;;33.17;12.70;;;;;;;7.05;63.97;95173.22;5091622;28;20048;-65
2021/04/28 05:26:18;;;;;;;19.38;11.55;;;;;;;7.12;63.64;95171.94;5077497;28;20066;-65
2021/04/28 05:28:44;;;;;;;23.38;12.10;;;;;;;7.21;62.82;95186.22;5071384;28;20090;-65
2021/04/28 05:31:10;;;;;;;19.17;11.95;;;;;;;7.27;62.19;95174.88;5071416;28;20101;-64
2021/04/28 05:33:36;;;;;;;18.33;11.63;;;;;;;7.31;62.28;95180.47;5071807;28;20053;-65
2021/04/28 05:36:02;;;;;;;17.05;11.20;;;;;;;7.39;62.51;95171.47;5071268;28;20052;-65
2021/04/28 05:38:28;;;;;;;18.83;10.90;;;;;;;7.44;61.70;95174.00;5071791;28;20048;-65
2021/04/28 05:40:55;;;;;;;15.60;10.30;;;;;;;7.50;61.68;95167.28;5071101;28;20044;-65
2021/04/28 05:43:21;;;;;;;16.77;10.65;;;;;;;7.57;61.91;95173.00;5071839;28;20063;-65
2021/04/28 05:45:47;;;;;;;19.52;10.55;;;;;;;7.72;61.52;95170.81;5070174;28;20068;-65
2021/04/28 05:48:15;;;;;;;16.80;10.73;;;;;;;7.86;61.58;95165.94;5071679;28;20102;-65
2021/04/28 05:50:42;;;;;;;13.25;9.85;;;;;;;7.94;60.55;95173.25;5073555;28;20041;-65
2021/04/28 05:53:09;;;;;;;16.35;10.25;;;;;;;8.06;60.30;95184.16;5091547;28;20411;-64
2021/04/28 05:55:36;;;;;;;15.30;9.57;;;;;;;8.16;60.24;95179.47;5082763;28;20052;-64
2021/04/28 05:58:03;;;;;;;15.88;10.35;;;;;;;8.30;60.07;95182.69;5070762;28;20049;-65
2021/04/28 06:00:29;;;;;;;18.60;10.10;;;;;;;8.39;59.49;95169.09;5071369;28;20056;-64
2021/04/28 06:02:55;;;;;;;17.17;9.95;;;;;;;8.48;58.71;95169.81;5070884;28;20492;-64
2021/04/28 06:05:22;;;;;;;16.27;10.40;;;;;;;8.55;59.23;95168.13;5073042;28;20053;-73
2021/04/28 06:07:48;;;;;;;17.88;10.45;;;;;;;8.59;58.92;95177.19;5088499;28;20051;-73
2021/04/28 06:10:16;;;;;;;17.38;10.38;;;;;;;8.66;58.78;95168.50;5088527;28;20052;-70
2021/04/28 06:12:42;;;;;;;16.65;10.80;;;;;;;8.73;58.52;95167.97;5087941;28;20764;-70
2021/04/28 06:15:10;;;;;;;14.63;10.45;;;;;;;8.79;59.29;95167.44;5088695;28;20580;-72
2021/04/28 06:17:36;;;;;;;15.07;10.18;;;;;;;8.89;59.51;95171.66;5088782;28;20040;-71
2021/04/28 06:20:05;;;;;;;17.85;9.98;;;;;;;9.05;60.25;95163.63;5087947;28;20044;-71
2021/04/28 06:22:31;;;;;;;16.00;10.27;;;;;;;9.17;59.47;95162.84;5088628;28;20043;-71
2021/04/28 06:24:57;;;;;;;15.35;9.82;;;;;;;9.21;58.22;95169.22;5085239;28;20182;-70
2021/04/28 06:27:23;;;;;;;13.10;9.63;;;;;;;9.27;58.89;95178.72;5067695;28;20434;-71
2021/04/28 06:29:49;;;;;;;15.82;10.73;;;;;;;9.29;58.73;95171.84;5067872;28;20052;-71
2021/04/28 06:32:16;;;;;;;16.17;11.00;;;;;;;9.43;59.27;95176.13;5068272;28;20049;-70
2021/04/28 06:34:42;;;;;;;14.88;10.73;;;;;;;9.58;59.44;95172.72;5067211;28;20052;-71
2021/04/28 06:37:09;;;;;;;20.13;10.32;;;;;;;9.67;58.77;95178.84;5067967;28;20049;-70
2021/04/28 06:39:35;;;;;;;14.68;10.23;;;;;;;9.74;58.58;95179.06;5067430;28;20059;-70
2021/04/28 06:42:01;;;;;;;16.45;10.25;;;;;;;9.80;58.85;95174.19;5067944;28;20053;-71
2021/04/28 06:44:27;;;;;;;14.82;10.20;;;;;;;9.83;58.17;95176.25;5068011;28;20045;-70
2021/04/28 06:46:53;;;;;;;18.73;10.13;;;;;;;9.94;58.72;95177.34;5067879;28;20059;-70
2021/04/28 06:49:20;;;;;;;14.65;10.38;;;;;;;10.04;57.94;95176.09;5067441;28;20495;-71
2021/04/28 06:51:46;;;;;;;23.83;19.88;;;;;;;10.17;58.68;95170.28;5079271;28;20055;-70
2021/04/28 06:54:12;;;;;;;17.00;12.73;;;;;;;10.32;58.09;95176.16;5087715;28;20522;-70
2021/04/28 06:56:42;;;;;;;16.42;10.63;;;;;;;10.41;56.68;95169.44;5070315;28;20080;-70
2021/04/28 06:59:08;;;;;;;14.98;9.13;;;;;;;10.50;55.78;95169.31;5067590;28;20053;-70
2021/04/28 07:01:34;;;;;;;13.25;8.90;;;;;;;10.58;55.18;95162.91;5067400;28;20105;-70
2021/04/28 07:04:00;;;;;;;16.10;9.90;;;;;;;10.70;55.86;95171.03;5068184;28;20689;-71
2021/04/28 07:06:27;;;;;;;14.90;8.57;;;;;;;10.82;54.85;95172.13;5067149;28;20060;-68
2021/04/28 07:08:53;;;;;;;14.75;9.68;;;;;;;10.91;55.73;95172.72;5070456;28;20090;-69
2021/04/28 07:11:19;;;;;;;15.57;9.60;;;;;;;11.04;54.41;95171.53;5069723;28;20048;-70
2021/04/28 07:13:45;;;;;;;13.30;9.15;;;;;;;11.25;55.63;95171.31;5070466;28;20495;-70
2021/04/28 07:16:11;;;;;;;23.00;9.98;;;;;;;11.41;55.11;95166.63;5070044;28;20452;-69
2021/04/28 07:18:37;;;;;;;12.82;8.45;;;;;;;11.56;55.15;95167.78;5069974;28;20087;-69
2021/04/28 07:21:04;;;;;;;15.85;9.23;;;;;;;11.64;54.15;95164.09;5075599;28;20048;-69
2021/04/28 07:23:31;;;;;;;14.45;9.18;;;;;;;11.73;53.40;95166.63;5089923;28;20120;-69
2021/04/28 07:25:57;;;;;;;13.77;8.52;;;;;;;11.82;52.75;95169.97;5079675;28;20067;-69
2021/04/28 07:28:23;;;;;;;19.65;9.10;;;;;;;11.99;54.35;95174.25;5069284;28;20467;-69
2021/04/28 07:30:49;;;;;;;15.80;9.00;;;;;;;12.21;52.30;95178.25;5070503;28;20045;-69
2021/04/28 07:33:15;;;;;;;13.35;9.25;;;;;;;12.38;52.22;95175.13;5069098;28;20542;-69
2021/04/28 07:35:41;;;;;;;13.15;8.27;;;;;;;12.60;52.13;95176.34;5070143;28;20075;-70
2021/04/28 07:38:07;;;;;;;15.93;9.13;;;;;;;12.90;53.40;95173.03;5069558;28;20044;-70
2021/04/28 07:40:34;;;;;;;23.35;8.73;;;;;;;13.17;51.57;95177.44;5070017;28;20052;-69
2021/04/28 07:43:00;;;;;;;17.70;8.75;;;;;;;13.57;51.21;95178.94;5070493;28;20158;-70
2021/04/28 07:45:26;;;;;;;12.55;9.15;;;;;;;14.08;48.35;95181.28;5069414;28;20044;-70
2021/04/28 07:47:52;;;;;;;13.68;9.00;;;;;;;14.58;46.46;95176.53;5070672;28;20053;-70
2021/04/28 07:50:19;;;;;;;13.85;8.57;;;;;;;14.98;44.96;95172.31;5068919;28;20059;-69
2021/04/28 07:52:48;;;;;;;12.40;8.57;;;;;;;15.39;44.73;95175.88;5090395;28;20040;-69
2021/04/28 07:55:14;;;;;;;11.45;7.50;;;;;;;15.80;42.85;95178.63;5083657;28;20044;-70
2021/04/28 07:57:43;;;;;;;9.57;7.57;;;;;;;16.40;41.79;95173.53;5069962;28;20407;-69
2021/04/28 08:00:10;;;;;;;12.82;9.25;;;;;;;16.84;41.66;95180.84;5069166;28;20094;-70
2021/04/28 08:02:36;;;;;;;10.88;7.85;;;;;;;17.34;40.17;95170.00;5070154;28;20053;-70
2021/04/28 08:05:03;;;;;;;10.68;7.68;;;;;;;18.06;38.55;95165.31;5069550;28;20056;-70
2021/04/28 08:07:29;;;;;;;12.10;7.72;;;;;;;18.43;37.49;95167.66;5069618;28;20051;-69
2021/04/28 08:09:55;;;;;;;10.20;7.80;;;;;;;18.81;36.78;95170.72;5072812;28;20127;-70
2021/04/28 08:12:21;;;;;;;10.80;7.22;;;;;;;19.02;36.87;95167.88;5072406;28;20547;-70
2021/04/28 08:14:47;;;;;;;9.43;7.05;;;;;;;19.20;37.25;95164.22;5074248;28;20040;-70
2021/04/28 08:17:13;;;;;;;13.30;7.90;;;;;;;19.13;36.25;95170.56;5072308;28;20068;-70
2021/04/28 08:19:39;;;;;;;11.68;8.05;;;;;;;19.17;36.39;95162.28;5073811;28;20048;-70
2021/04/28 08:22:05;;;;;;;12.10;8.32;;;;;;;19.13;37.63;95167.03;5086508;28;20411;-70
2021/04/28 08:24:32;;;;;;;16.42;8.00;;;;;;;18.95;36.24;95170.66;5093654;28;20419;-70
2021/04/28 08:26:58;;;;;;;15.15;7.72;;;;;;;18.88;37.71;95176.19;5073747;28;20045;-70
2021/04/28 08:29:24;;;;;;;13.15;7.95;;;;;;;18.99;36.09;95167.88;5072506;28;20115;-70
2021/04/28 08:31:51;;;;;;;13.88;8.00;;;;;;;19.08;37.34;95173.75;5073273;28;20054;-70
2021/04/28 08:34:17;;;;;;;14.27;8.63;;;;;;;19.17;37.35;95176.88;5072015;28;20052;-69
2021/04/28 08:36:43;;;;;;;13.00;7.88;;;;;;;19.31;36.43;95175.97;5073451;28;20478;-70
2021/04/28 08:39:09;;;;;;;11.18;8.02;;;;;;;19.63;37.78;95163.97;5071661;28;20131;-69
2021/04/28 08:41:35;;;;;;;12.25;7.93;;;;;;;20.20;35.83;95163.53;5073660;28;20072;-69
2021/04/28 08:44:03;;;;;;;10.93;7.90;;;;;;;20.65;33.83;95166.28;5072118;28;20051;-69
2021/04/28 08:46:29;;;;;;;14.18;8.20;;;;;;;21.03;33.33;95165.00;5072957;28;20499;-69
2021/04/28 08:48:56;;;;;;;10.75;8.30;;;;;;;21.52;32.99;95170.34;5072288;28;20052;-69
2021/04/28 08:51:22;;;;;;;10.98;7.93;;;;;;;21.74;32.62;95165.28;5080510;28;20044;-69
2021/04/28 08:53:49;;;;;;;14.40;7.95;;;;;;;21.81;32.72;95157.63;5093089;28;20059;-69
2021/04/28 08:56:15;;;;;;;12.32;8.00;;;;;;;22.00;33.05;95158.91;5077872;28;20130;-70
2021/04/28 08:58:41;;;;;;;10.63;8.13;;;;;;;22.09;31.55;95161.94;5072621;28;20048;-70
2021/04/28 09:01:07;;;;;;;15.98;7.70;;;;;;;22.61;31.19;95161.44;5071390;28;20052;-70
2021/04/28 09:03:38;;;;;;;11.32;7.47;;;;;;;22.83;29.98;95163.81;5055350;28;20503;-70
2021/04/28 09:06:27;;;;;;;13.15;7.80;;;;;;;23.28;28.50;95166.06;5071121;28;20507;-70
2021/04/28 09:08:54;;;;;;;11.32;7.60;;;;;;;23.43;29.25;95172.88;5072476;28;20055;-71
2021/04/28 09:11:41;;;;;;;11.80;8.30;;;;;;;24.01;28.71;95166.84;5070647;28;20055;-70
2021/04/28 09:14:10;;;;;;;12.55;7.75;;;;;;;24.08;28.42;95155.56;5068479;28;20044;-70
2021/04/28 09:16:37;;;;;;;11.18;7.35;;;;;;;24.36;30.46;95159.63;5070184;28;20045;-70
2021/04/28 09:19:04;;;;;;;13.95;7.20;;;;;;;24.72;28.69;95154.69;5069740;28;20047;-70
2021/04/28 09:21:57;;;;;;;10.48;7.00;;;;;;;25.24;27.38;95150.88;5079408;28;20044;-70
2021/04/28 09:24:24;;;;;;;;;;;;;;;25.49;25.02;95149.34;5090691;28;20044;-70
2021/04/28 09:26:53;;;;;;;10.88;7.80;;;;;;;25.51;27.64;95141.31;5090384;28;19931;-70
2021/04/28 09:29:21;;;;;;;11.93;7.97;;;;;;;25.66;27.27;95136.88;5090695;28;20040;-70
2021/04/28 09:32:01;;;;;;;13.43;8.18;;;;;;;25.74;27.24;95143.81;5092077;28;20040;-70
2021/04/28 09:34:30;;;;;;;11.88;7.32;;;;;;;25.63;28.17;95140.56;5092118;28;20441;-70
2021/04/28 09:37:08;;;;;;;9.88;7.65;;;;;;;25.42;26.22;95138.41;5090889;28;20429;-70
2021/04/28 09:39:48;;;;;;;12.57;7.75;;;;;;;24.83;28.31;95136.91;5089320;28;20055;-71
2021/04/28 09:42:16;;;;;;;13.90;8.20;;;;;;;24.33;28.33;95138.25;5087699;28;20544;-71
2021/04/28 09:44:48;;;;;;;11.27;8.05;;;;;;;23.94;29.72;95134.44;5089512;28;20051;-71
2021/04/28 09:47:16;;;;;;;14.07;8.35;;;;;;;23.45;30.91;95131.59;5088677;28;20485;-71
2021/04/28 09:49:48;;;;;;;14.63;8.32;;;;;;;23.06;29.60;95126.88;5089137;28;20094;-71
2021/04/28 09:52:17;;;;;;;11.10;7.95;;;;;;;22.95;31.97;95118.75;5088927;28;20052;-71
2021/04/28 09:54:45;;;;;;;12.88;7.65;;;;;;;22.86;30.44;95119.31;5087429;28;20058;-71
2021/04/28 09:57:14;;;;;;;10.05;7.57;;;;;;;22.75;30.89;95117.97;5068754;28;20048;-71
2021/04/28 09:59:48;;;;;;;12.43;8.20;;;;;;;22.64;29.85;95118.94;5068210;28;20070;-71
2021/04/28 10:02:24;;;;;;;13.65;7.70;;;;;;;22.72;31.71;95110.50;5068497;28;20056;-71
2021/04/28 10:04:50;;;;;;;10.82;7.82;;;;;;;22.86;31.02;95104.66;5068096;28;20068;-71
2021/04/28 10:07:26;;;;;;;12.55;8.30;;;;;;;22.95;30.64;95107.66;5067808;28;20049;-71
2021/04/28 10:09:52;;;;;;;14.52;8.52;;;;;;;22.96;32.83;95112.00;5068649;28;20052;-71
2021/04/28 10:12:20;;;;;;;12.65;8.23;;;;;;;22.97;30.13;95108.03;5067394;28;20048;-70
2021/04/28 10:14:46;;;;;;;11.20;8.38;;;;;;;22.97;30.17;95113.59;5068957;28;20700;-71
2021/04/28 10:17:13;;;;;;;12.73;9.10;;;;;;;22.94;31.32;95110.88;5067135;28;20048;-71
2021/04/28 10:19:40;;;;;;;12.75;8.18;;;;;;;22.98;30.10;95106.81;5068826;28;20044;-71
2021/04/28 10:22:08;;;;;;;12.63;8.80;;;;;;;23.03;28.17;95105.53;5080561;28;20048;-71
2021/04/28 10:24:36;;;;;;;10.48;8.32;;;;;;;23.10;29.77;95106.16;5087235;28;20056;-71
2021/04/28 10:27:03;;;;;;;11.32;8.30;;;;;;;23.13;28.82;95105.31;5067238;28;20044;-71
2021/04/28 10:29:30;;;;;;;11.40;8.18;;;;;;;23.16;27.66;95111.97;5067850;28;20052;-71
2021/04/28 10:31:58;;;;;;;18.23;8.82;;;;;;;23.09;27.74;95110.16;5067730;28;20072;-71
2021/04/28 10:34:29;;;;;;;13.43;8.85;;;;;;;23.11;28.93;95113.25;5067073;28;20512;-71
2021/04/28 10:36:57;;;;;;;11.07;7.97;;;;;;;23.13;27.53;95101.75;5068425;28;20625;-72
2021/04/28 10:39:25;;;;;;;11.40;8.15;;;;;;;23.09;27.39;95109.38;5066614;28;20055;-71
2021/04/28 10:41:53;;;;;;;10.65;8.60;;;;;;;23.12;29.35;95109.28;5068486;28;20118;-71
2021/04/28 10:44:39;;;;;;;12.13;8.25;;;;;;;23.16;29.60;95109.97;5066942;28;20049;-71
2021/04/28 10:47:33;;;;;;;14.07;8.48;;;;;;;23.36;28.32;95106.38;5067563;28;20667;-72
2021/04/28 10:50:20;;;;;;;11.68;8.20;;;;;;;23.45;27.19;95095.47;5068105;28;20502;-71
2021/04/28 10:52:50;;;;;;;12.48;8.35;;;;;;;23.49;27.70;95101.72;5086567;28;20046;-72
2021/04/28 10:55:37;;;;;;;13.07;7.78;;;;;;;23.63;25.33;95087.50;5087079;28;20682;-71
2021/04/28 10:58:04;;;;;;;10.27;7.57;;;;;;;23.62;25.84;95091.47;5087099;28;20051;-71
2021/04/28 11:00:30;;;;;;;10.93;7.22;;;;;;;23.35;23.76;95099.28;5088263;28;20051;-71
2021/04/28 11:02:57;;;;;;;9.00;6.40;;;;;;;23.21;25.42;95091.25;5088494;28;20051;-71
2021/04/28 11:05:27;;;;;;;11.10;6.93;;;;;;;23.39;25.14;95094.44;5086634;28;20048;-70
2021/04/28 11:07:54;;;;;;;10.23;7.97;;;;;;;23.54;26.63;95086.50;5088053;28;20726;-70
2021/04/28 11:10:32;;;;;;;9.88;6.78;;;;;;;23.65;25.80;95082.31;5086202;28;20046;-71
2021/04/28 11:13:08;;;;;;;10.35;7.22;;;;;;;23.88;25.25;95080.56;5088510;28;20059;-71
2021/04/28 11:15:51;;;;;;;8.63;6.68;;;;;;;23.92;25.04;95070.94;5087222;28;20479;-71
2021/04/28 11:18:28;;;;;;;11.40;6.78;;;;;;;24.08;23.44;95084.03;5087122;28;20785;-71
2021/04/28 11:21:26;;;;;;;10.32;6.68;;;;;;;24.17;24.61;95070.28;5087808;28;20052;-71
2021/04/28 11:24:07;;;;;;;10.98;7.00;;;;;;;24.34;24.94;95068.25;5086991;28;20071;-71
2021/04/28 11:26:34;;;;;;;14.70;8.38;;;;;;;24.34;25.40;95073.81;5071443;28;20195;-71
2021/04/28 11:29:03;;;;;;;11.80;7.95;;;;;;;24.26;26.83;95071.66;5067740;28;20048;-71